createdAt,value
2022-10-16T00:02:17.718Z,2.9
2022-10-16T00:05:17.669Z,3.9
2022-10-16T00:08:17.701Z,4.1
2022-10-16T00:11:17.685Z,2.8
2022-10-16T00:14:17.684Z,2.6
2022-10-16T00:17:17.685Z,4.5
2022-10-16T00:20:17.687Z,3.3
2022-10-16T00:23:17.691Z,1.8
2022-10-16T00:26:17.716Z,3.1
2022-10-16T00:29:17.692Z,2.6
2022-10-16T00:32:17.692Z,2.6
2022-10-16T00:35:17.698Z,3.3
2022-10-16T00:38:17.700Z,4.1
2022-10-16T00:41:17.702Z,2.3
2022-10-16T00:44:17.737Z,2.6
2022-10-16T00:47:17.710Z,2.8
2022-10-16T00:50:17.702Z,2.5
2022-10-16T00:53:17.718Z,4
2022-10-16T00:56:17.728Z,4.5
2022-10-16T00:59:17.757Z,3.8
2022-10-16T01:02:17.780Z,3.9
2022-10-16T01:05:17.774Z,3.1
2022-10-16T01:08:17.789Z,4.1
2022-10-16T01:11:17.795Z,3
2022-10-16T01:14:17.804Z,3.5
2022-10-16T01:17:17.813Z,2.7
2022-10-16T01:20:17.849Z,3.5
2022-10-16T01:23:17.831Z,4.6
2022-10-16T01:26:17.851Z,4.5
2022-10-16T01:29:17.860Z,4.1
2022-10-16T01:32:17.884Z,4.6
2022-10-16T01:35:17.898Z,4.4
2022-10-16T01:38:17.928Z,3.1
2022-10-16T01:41:17.916Z,4.4
2022-10-16T01:44:17.925Z,3.7
2022-10-16T01:47:17.935Z,3.3
2022-10-16T01:50:17.957Z,3.8
2022-10-16T01:53:17.961Z,3.9
2022-10-16T01:56:17.998Z,3.9
2022-10-16T01:59:17.985Z,3.5
2022-10-16T02:02:17.992Z,3.8
2022-10-16T02:05:18.018Z,3
2022-10-16T02:08:18.013Z,4
2022-10-16T02:11:18.028Z,4.1
2022-10-16T02:14:18.052Z,3.8
2022-10-16T02:17:18.032Z,4.9
2022-10-16T02:20:18.043Z,4.4
2022-10-16T02:23:18.054Z,3.4
2022-10-16T02:26:18.068Z,3.9
2022-10-16T02:29:18.070Z,4.9
2022-10-16T02:32:18.104Z,4.6
2022-10-16T02:35:18.085Z,5.6
2022-10-16T02:38:18.103Z,3.6
2022-10-16T02:41:18.127Z,4.1
2022-10-16T02:44:18.129Z,4.6
2022-10-16T02:47:18.131Z,3.9
2022-10-16T02:50:18.169Z,3.6
2022-10-16T02:53:18.156Z,3.5
2022-10-16T02:59:18.180Z,4.2
2022-10-16T03:02:18.183Z,4.5
2022-10-16T03:05:18.279Z,5.1
2022-10-16T03:08:18.220Z,3.5
2022-10-16T03:11:18.215Z,3.7
2022-10-16T03:14:18.267Z,3.3
2022-10-16T03:17:18.226Z,4.4
2022-10-16T03:20:18.236Z,4.1
2022-10-16T03:23:18.263Z,3.7
2022-10-16T03:26:18.297Z,4.4
2022-10-16T03:29:18.270Z,3.8
2022-10-16T03:32:18.281Z,4.8
2022-10-16T03:35:18.299Z,3.1
2022-10-16T03:38:18.310Z,4.6
2022-10-16T03:41:18.331Z,4.1
2022-10-16T03:44:18.359Z,4.1
2022-10-16T03:47:18.346Z,5.1
2022-10-16T03:50:18.354Z,5
2022-10-16T03:53:18.365Z,5.4
2022-10-16T03:56:18.383Z,4.1
2022-10-16T03:59:18.442Z,4
2022-10-16T04:02:18.416Z,5.1
2022-10-16T04:05:18.409Z,5.6
2022-10-16T04:08:18.421Z,5.1
2022-10-16T04:11:18.434Z,5.3
2022-10-16T04:14:18.440Z,4.1
2022-10-16T04:17:18.453Z,4.8
2022-10-16T04:20:18.495Z,6
2022-10-16T04:23:18.500Z,5.4
2022-10-16T04:26:18.523Z,4.2
2022-10-16T04:29:18.530Z,4.9
2022-10-16T04:32:18.546Z,3.9
2022-10-16T04:35:18.567Z,5
2022-10-16T04:38:18.597Z,5.2
2022-10-16T04:41:18.600Z,4.9
2022-10-16T04:44:18.596Z,4.5
2022-10-16T04:47:18.609Z,6.3
2022-10-16T04:50:18.625Z,5
2022-10-16T04:53:18.640Z,4.4
2022-10-16T04:56:18.687Z,5.2
2022-10-16T04:59:18.663Z,5.8
2022-10-16T05:02:18.673Z,4.8
2022-10-16T05:05:18.691Z,7.5
2022-10-16T05:08:18.707Z,5.2
2022-10-16T05:11:18.737Z,4.4
2022-10-16T05:14:18.764Z,5.4
2022-10-16T05:17:18.758Z,7.4
2022-10-16T05:20:18.774Z,6.3
2022-10-16T05:23:18.802Z,7.2
2022-10-16T05:26:18.819Z,5.5
2022-10-16T05:29:18.820Z,7.1
2022-10-16T05:32:18.847Z,6.4
2022-10-16T05:35:18.846Z,7.2
2022-10-16T05:38:18.852Z,6
2022-10-16T05:41:18.917Z,6.4
2022-10-16T05:44:18.869Z,5.4
2022-10-16T05:47:18.917Z,6.5
2022-10-16T05:50:18.926Z,6.8
2022-10-16T05:53:18.902Z,6
2022-10-16T05:56:18.932Z,6.8
2022-10-16T05:59:18.909Z,6.7
2022-10-16T06:02:18.909Z,5.9
2022-10-16T06:05:18.907Z,5.5
2022-10-16T06:08:18.958Z,5.9
2022-10-16T06:11:18.948Z,5.9
2022-10-16T06:14:18.933Z,5.9
2022-10-16T06:17:18.936Z,6.1
2022-10-16T06:20:18.934Z,5.3
2022-10-16T06:23:18.935Z,7.2
2022-10-16T06:26:18.983Z,8.3
2022-10-16T06:29:18.938Z,5.8
2022-10-16T06:32:18.940Z,4.9
2022-10-16T06:35:18.950Z,6.5
2022-10-16T06:38:18.940Z,7.3
2022-10-16T06:41:18.957Z,6.7
2022-10-16T06:44:18.972Z,6.2
2022-10-16T06:47:18.953Z,7
2022-10-16T06:50:18.955Z,5.6
2022-10-16T06:53:18.964Z,5.9
2022-10-16T06:56:18.978Z,5.2
2022-10-16T06:59:18.968Z,5.1
2022-10-16T07:02:18.995Z,5.1
2022-10-16T07:05:18.978Z,6
2022-10-16T07:08:18.973Z,5.4
2022-10-16T07:11:18.992Z,3.6
2022-10-16T07:14:18.987Z,4.1
2022-10-16T07:17:18.984Z,4.8
2022-10-16T07:20:19.015Z,4.9
2022-10-16T07:23:18.988Z,4.7
2022-10-16T07:26:18.992Z,4.2
2022-10-16T07:29:18.985Z,3.4
2022-10-16T07:32:18.996Z,3.7
2022-10-16T07:35:18.998Z,4.4
2022-10-16T07:38:19.066Z,3.4
2022-10-16T07:41:19.011Z,4.2
2022-10-16T07:44:19.004Z,4.5
2022-10-16T07:47:19.012Z,4
2022-10-16T07:50:19.012Z,3.8
2022-10-16T07:53:20.555Z,3.8
2022-10-16T07:56:19.058Z,2.9
2022-10-16T07:59:19.026Z,3.4
2022-10-16T08:02:19.028Z,3.8
2022-10-16T08:05:19.035Z,4.1
2022-10-16T08:08:19.034Z,5
2022-10-16T08:11:19.059Z,3.4
2022-10-16T08:14:19.064Z,2.3
2022-10-16T08:17:19.044Z,4.2
2022-10-16T08:20:19.055Z,2.9
2022-10-16T08:23:19.062Z,3.2
2022-10-16T08:26:19.081Z,3.4
2022-10-16T08:29:19.066Z,3
2022-10-16T08:32:19.849Z,3
2022-10-16T08:35:19.085Z,3.6
2022-10-16T08:38:19.088Z,2.3
2022-10-16T08:41:19.115Z,3.6
2022-10-16T08:44:19.099Z,2.8
2022-10-16T08:47:19.101Z,2
2022-10-16T08:50:19.127Z,3.2
2022-10-16T08:53:19.110Z,2.6
2022-10-16T08:56:19.131Z,2.3
2022-10-16T08:59:19.137Z,5.2
2022-10-16T09:02:19.131Z,3
2022-10-16T09:05:19.130Z,2.2
2022-10-16T09:08:19.159Z,3.8
2022-10-16T09:11:19.150Z,3.4
2022-10-16T09:14:19.150Z,2.3
2022-10-16T09:17:19.148Z,2.6
2022-10-16T09:20:19.208Z,4
2022-10-16T09:23:19.168Z,3.5
2022-10-16T09:26:19.286Z,4
2022-10-16T09:29:19.175Z,3
2022-10-16T09:32:19.187Z,2.6
2022-10-16T09:35:19.243Z,2.3
2022-10-16T09:38:19.193Z,3
2022-10-16T09:41:19.203Z,2.6
2022-10-16T09:44:19.226Z,1.1
2022-10-16T09:47:19.222Z,3.3
2022-10-16T09:50:19.216Z,2.4
2022-10-16T09:53:19.221Z,2.8
2022-10-16T09:56:19.238Z,3.7
2022-10-16T09:59:19.228Z,2.6
2022-10-16T10:02:19.272Z,1.6
2022-10-16T10:05:19.250Z,2.2
2022-10-16T10:08:19.254Z,1.4
2022-10-16T10:11:19.263Z,1.3
2022-10-16T10:14:19.275Z,1.8
2022-10-16T10:17:19.277Z,1.7
2022-10-16T10:20:19.310Z,1.8
2022-10-16T10:23:19.291Z,3.1
2022-10-16T10:26:19.307Z,1.3
2022-10-16T10:29:19.311Z,2.1
2022-10-16T10:32:19.310Z,1.7
2022-10-16T10:35:19.320Z,1.8
2022-10-16T10:38:19.363Z,2.6
2022-10-16T10:41:19.353Z,2.5
2022-10-16T10:44:19.347Z,2.2
2022-10-16T10:47:19.354Z,2.3
2022-10-16T10:50:19.359Z,2.5
2022-10-16T10:53:19.371Z,3
2022-10-16T10:56:19.414Z,2.2
2022-10-16T10:59:19.389Z,1.9
2022-10-16T11:02:19.389Z,2.9
2022-10-16T11:05:19.408Z,1.7
2022-10-16T11:08:19.416Z,1.8
2022-10-16T11:11:19.436Z,2
2022-10-16T11:14:19.457Z,2.5
2022-10-16T11:17:19.446Z,3.1
2022-10-16T11:20:19.455Z,1.9
2022-10-16T11:23:19.462Z,3.9
2022-10-16T11:26:19.495Z,1.9
2022-10-16T11:29:19.509Z,1.6
2022-10-16T11:32:19.524Z,1.4
2022-10-16T11:35:19.517Z,2.3
2022-10-16T11:38:19.516Z,2
2022-10-16T11:41:19.534Z,1.7
2022-10-16T11:44:19.540Z,4.1
2022-10-16T11:50:19.586Z,2.7
2022-10-16T11:53:19.558Z,2.5
2022-10-16T11:56:19.585Z,1.6
2022-10-16T11:59:19.580Z,1.9
2022-10-16T12:02:19.589Z,2.5
2022-10-16T12:05:19.598Z,4.3
2022-10-16T12:08:19.634Z,1.7
2022-10-16T12:11:19.631Z,3
2022-10-16T12:14:19.624Z,2.2
2022-10-16T12:17:19.638Z,3.9
2022-10-16T12:20:19.657Z,2.4
2022-10-16T12:23:19.665Z,4.2
2022-10-16T12:26:19.708Z,2.2
2022-10-16T12:29:19.685Z,2.2
2022-10-16T12:32:41.726Z,3.7
2022-10-16T12:35:19.710Z,2.2
2022-10-16T12:38:19.731Z,2.6
2022-10-16T12:41:19.747Z,2.5
2022-10-16T12:44:19.776Z,1.7
2022-10-16T12:50:19.775Z,2.7
2022-10-16T12:53:19.781Z,2.3
2022-10-16T12:56:19.814Z,3
2022-10-16T12:59:19.818Z,3.6
2022-10-16T13:02:19.854Z,4.5
2022-10-16T13:05:19.841Z,2.5
2022-10-16T13:08:19.855Z,3.9
2022-10-16T13:11:19.877Z,3.3
2022-10-16T13:14:19.886Z,2.7
2022-10-16T13:17:19.893Z,2.4
2022-10-16T13:20:19.911Z,2
2022-10-16T13:23:19.898Z,2.6
2022-10-16T13:26:19.916Z,2
2022-10-16T13:29:19.908Z,3.9
2022-10-16T13:32:19.911Z,3.3
2022-10-16T13:35:19.921Z,1.6
2022-10-16T13:38:19.957Z,2.3
2022-10-16T13:41:19.935Z,2.1
2022-10-16T13:44:19.927Z,2.3
2022-10-16T13:47:19.926Z,3.2
2022-10-16T13:50:19.935Z,1.5
2022-10-16T13:53:19.934Z,3.6
2022-10-16T13:56:19.967Z,1.9
2022-10-16T13:59:19.938Z,2.4
2022-10-16T14:02:20.071Z,2.8
2022-10-16T14:05:19.941Z,2.3
2022-10-16T14:08:19.949Z,1.6
2022-10-16T14:11:19.951Z,1.6
2022-10-16T14:14:19.968Z,1.9
2022-10-16T14:17:19.943Z,2.6
2022-10-16T14:20:19.948Z,2.5
2022-10-16T14:23:19.950Z,1.9
2022-10-16T14:26:19.955Z,3.6
2022-10-16T14:29:19.958Z,2.5
2022-10-16T14:32:19.973Z,2.9
2022-10-16T14:35:19.952Z,2.2
2022-10-16T14:38:19.954Z,3
2022-10-16T14:41:19.974Z,3.6
2022-10-16T14:44:19.953Z,2.1
2022-10-16T14:47:19.957Z,2.3
2022-10-16T14:50:19.979Z,1.2
2022-10-16T14:53:19.960Z,4.5
2022-10-16T14:56:19.974Z,2
2022-10-16T14:59:19.957Z,2.4
2022-10-16T15:02:19.961Z,1.8
2022-10-16T15:05:19.975Z,2.7
2022-10-16T15:08:19.987Z,2.1
2022-10-16T15:11:19.974Z,3
2022-10-16T15:14:19.968Z,3
2022-10-16T15:17:21.423Z,2.2
2022-10-16T15:20:19.973Z,1.7
2022-10-16T15:23:20.012Z,3.4
2022-10-16T15:26:20.011Z,3
2022-10-16T15:29:19.965Z,2.3
2022-10-16T15:32:20.034Z,2.1
2022-10-16T15:35:19.971Z,1.8
2022-10-16T15:38:19.971Z,1.6
2022-10-16T15:41:19.996Z,2.1
2022-10-16T15:44:20.002Z,2.7
2022-10-16T15:47:19.977Z,1.8
2022-10-16T15:50:19.982Z,2
2022-10-16T15:53:19.982Z,3.7
2022-10-16T15:56:19.991Z,3.9
2022-10-16T15:59:19.986Z,2.4
2022-10-16T16:02:20.011Z,2.1
2022-10-16T16:05:19.994Z,2.3
2022-10-16T16:08:19.989Z,4
2022-10-16T16:11:20.012Z,2.3
2022-10-16T16:14:20.001Z,2.3
2022-10-16T16:17:20.000Z,2.4
2022-10-16T16:20:20.031Z,2
2022-10-16T16:23:20.012Z,1.8
2022-10-16T16:26:20.017Z,2.7
2022-10-16T16:29:20.004Z,3.2
2022-10-16T16:32:20.008Z,2.4
2022-10-16T16:35:20.009Z,3.4
2022-10-16T16:38:20.038Z,3
2022-10-16T16:41:20.028Z,3.9
2022-10-16T16:44:20.012Z,3
2022-10-16T16:47:20.022Z,3.3
2022-10-16T16:50:20.021Z,4.7
2022-10-16T16:53:20.021Z,2.8
2022-10-16T16:56:20.064Z,2.9
2022-10-16T16:59:20.028Z,4.3
2022-10-16T17:02:20.077Z,3.3
2022-10-16T17:05:20.034Z,4
2022-10-16T17:08:20.028Z,3
2022-10-16T17:11:20.050Z,3.7
2022-10-16T17:14:20.059Z,4.3
2022-10-16T17:17:20.041Z,10.7
2022-10-16T17:20:20.043Z,11.5
2022-10-16T17:23:20.062Z,10.9
2022-10-16T17:26:20.068Z,10.2
2022-10-16T17:29:20.088Z,9.3
2022-10-16T17:32:20.093Z,8.8
2022-10-16T17:35:20.061Z,11.6
2022-10-16T17:38:20.066Z,11.5
2022-10-16T17:41:20.072Z,11.8
2022-10-16T17:44:20.082Z,9
2022-10-16T17:47:20.070Z,8.6
2022-10-16T17:50:20.094Z,7.2
2022-10-16T17:53:20.307Z,5.4
2022-10-16T17:56:20.131Z,4.9
2022-10-16T17:59:20.087Z,4.4
2022-10-16T18:02:20.085Z,5.5
2022-10-16T18:05:20.086Z,5.6
2022-10-16T18:08:21.088Z,6.9
2022-10-16T18:11:20.122Z,10.9
2022-10-16T18:14:20.098Z,7.5
2022-10-16T18:17:20.102Z,6.4
2022-10-16T18:20:20.099Z,6.9
2022-10-16T18:23:20.100Z,7.6
2022-10-16T18:26:20.231Z,9.1
2022-10-16T18:29:20.109Z,7.6
2022-10-16T18:32:20.117Z,6.4
2022-10-16T18:35:20.125Z,6.6
2022-10-16T18:38:20.121Z,6.3
2022-10-16T18:41:20.133Z,7.4
2022-10-16T18:47:20.125Z,6.1
2022-10-16T18:50:20.127Z,6.6
2022-10-16T18:53:20.173Z,6.5
2022-10-16T18:56:20.144Z,6.5
2022-10-16T18:59:20.137Z,7.9
2022-10-16T19:02:20.163Z,7.2
2022-10-16T19:05:20.147Z,6.7
2022-10-16T19:08:20.147Z,6.5
2022-10-16T19:11:20.167Z,4.8
2022-10-16T19:14:20.146Z,6.1
2022-10-16T19:17:20.154Z,5.1
2022-10-16T19:20:20.178Z,4.8
2022-10-16T19:23:20.159Z,4.6
2022-10-16T19:26:20.172Z,4.4
2022-10-16T19:29:20.161Z,4.5
2022-10-16T19:32:20.168Z,5.4
2022-10-16T19:35:20.159Z,3.7
2022-10-16T19:38:20.189Z,6.2
2022-10-16T19:41:20.182Z,5.7
2022-10-16T19:44:20.170Z,6.2
2022-10-16T19:47:20.947Z,5.8
2022-10-16T19:50:20.176Z,6.7
2022-10-16T19:53:20.180Z,7.8
2022-10-16T19:56:20.220Z,6.9
2022-10-16T19:59:20.190Z,8.4
2022-10-16T20:02:20.191Z,8.4
2022-10-16T20:05:20.195Z,5.8
2022-10-16T20:08:20.200Z,5.8
2022-10-16T20:11:20.221Z,5.6
2022-10-16T20:14:20.233Z,4
2022-10-16T20:17:20.205Z,3.9
2022-10-16T20:20:20.209Z,4.6
2022-10-16T20:23:20.226Z,5.9
2022-10-16T20:26:20.225Z,7.8
2022-10-16T20:29:20.222Z,7.5
2022-10-16T20:32:20.253Z,7.6
2022-10-16T20:35:20.232Z,8.6
2022-10-16T20:38:20.235Z,7.5
2022-10-16T20:41:20.249Z,6.6
2022-10-16T20:44:20.241Z,7.4
2022-10-16T20:47:20.259Z,7.1
2022-10-16T20:50:20.286Z,8.9
2022-10-16T20:53:20.262Z,12.7
2022-10-16T20:56:20.277Z,13.5
2022-10-16T20:59:20.276Z,12.5
2022-10-16T21:02:20.322Z,12.3
2022-10-16T21:05:20.283Z,8.9
2022-10-16T21:08:20.315Z,8.1
2022-10-16T21:11:20.375Z,8.3
2022-10-16T21:14:20.297Z,6
2022-10-16T21:17:20.295Z,6.3
2022-10-16T21:20:20.305Z,6.8
2022-10-16T21:23:20.309Z,6.3
2022-10-16T21:26:20.354Z,6.6
2022-10-16T21:29:20.321Z,6.1
2022-10-16T21:32:20.324Z,6.9
2022-10-16T21:35:20.326Z,4.8
2022-10-16T21:38:20.333Z,6.7
2022-10-16T21:41:20.345Z,5.3
2022-10-16T21:44:20.370Z,4.1
2022-10-16T21:47:20.349Z,5.2
2022-10-16T21:50:20.352Z,3.8
2022-10-16T21:53:20.360Z,5.9
2022-10-16T21:56:20.372Z,3.8
2022-10-16T21:59:20.366Z,4.2
2022-10-16T22:02:20.396Z,4.5
2022-10-16T22:05:20.377Z,8.1
2022-10-16T22:08:20.379Z,5.1
2022-10-16T22:11:22.016Z,4.1
2022-10-16T22:14:20.384Z,4.7
2022-10-16T22:17:20.394Z,4.8
2022-10-16T22:20:20.424Z,6.6
2022-10-16T22:23:20.396Z,4.7
2022-10-16T22:26:20.418Z,5.7
2022-10-16T22:29:20.409Z,4.3
2022-10-16T22:32:20.415Z,4.4
2022-10-16T22:35:20.428Z,4.6
2022-10-16T22:38:20.459Z,6.1
2022-10-16T22:41:20.446Z,4.9
2022-10-16T22:44:20.441Z,5.7
2022-10-16T22:47:20.446Z,4.8
2022-10-16T22:50:20.451Z,5.9
2022-10-16T22:53:20.456Z,4.4
2022-10-16T22:56:20.500Z,5
2022-10-16T22:59:20.469Z,3.5
2022-10-16T23:02:20.475Z,4
2022-10-16T23:05:20.484Z,4.8
2022-10-16T23:08:20.492Z,4.4
2022-10-16T23:11:20.506Z,8.5
2022-10-16T23:14:20.527Z,5.9
2022-10-16T23:17:20.508Z,3.9
2022-10-16T23:20:20.519Z,5.3
2022-10-16T23:23:20.522Z,5.7
2022-10-16T23:26:20.544Z,5.1
2022-10-16T23:29:20.542Z,4.7
2022-10-16T23:32:20.562Z,4.5
2022-10-16T23:35:20.544Z,7.1
2022-10-16T23:38:20.552Z,4.5
2022-10-16T23:41:20.567Z,4.4
2022-10-16T23:44:20.564Z,4.3
2022-10-16T23:47:20.574Z,5.1
2022-10-16T23:50:20.607Z,4.3
2022-10-16T23:53:20.586Z,4.6
2022-10-16T23:56:20.600Z,4.4
2022-10-16T23:59:20.596Z,4.9
